Accueil
METAR-TAF:

METAR-TAF

Aéroports :

Faith Municipal Airport

Faith, Dakota du Sud, États-Unis

latitude: 45-01-55N, longitude: 102-01-09W, altitude: 787 m

Observation

Le bulletin a été fait il y a 10 minutes, à 21:56 UTC
Vent 21 kt de nord avec des rafales jusqu'à 32 kt
Température 0°C
Humidité 86%
Pression 1012 hPa

METAR: KD07 202156Z AUTO 35021G32KT 00/M02 A2989 RMK AO1 PK WND 35033/2102 SLP153 T00001022

Heure: 15:06 (22:06 UTC)


TAF: absent

Observations et prévisions météorologiques de plus de 4000 aéroports (messages METAR et TAF).

Les stations disponibles sont représentées par des disques jaunes et rouges sur la carte.

Passer la souris dessus pour voir le nom de la station.

Cliquer dessus pour voir les observations et prévisions météorologiques.

Pour changer de carte: cliquez sur les boutons verts avec une croix noire pour zoomer, sur le bouton vert avec un tiret pour effectuer un zoom arrière, ou sur les flèches vertes pour les cartes adjacentes.


METAR-TAF: